Mr Chip — WDC3048 — position and weather

sailwx.info

Track history (hours):
 
Tides and Currents Weather Stations Pressure Air Temp Water Temp Dewpoint Dewpoint Depression Visibility Wind Speed Wind Dir Waves Ship Positions

Mr Chip

Owner: CENTRAL BOAT RENTALS, BERWICK, LA. More information available from US FCC via Universal Licensing System and Coast Guard Vessel Documentation Center.

Last reported at 2017-Nov-16 13:34 UTC. Time now 2017-Nov-20 12:02 UTC.
Position N 29°45' W 093°53'.

Length 14 m; draft 2.3 m.

Type: Tug. MMSI: 367001990.

Date/timePositionNaut miles runAvg speedWind from/ knotsBaromVisibWave heightAir tempDewpointWater temp
2017-Nov-16 13:34N 29°45' W 093°53'0 0.0
2017-Nov-16 13:30N 29°45' W 093°53'0 0.0
2017-Nov-16 09:58N 29°45' W 093°53'  
2017-Nov-12 13:13N 30°03' W 093°43'2 6.0
2017-Nov-12 12:49N 30°04' W 093°40'2 5.6
2017-Nov-12 12:23N 30°04' W 093°37'69 4.7
2017-Nov-11 21:39N 29°50' W 092°19'1 5.5
2017-Nov-11 21:29N 29°50' W 092°18'2 4.9
2017-Nov-11 20:59N 29°49' W 092°16'3 5.7
2017-Nov-11 20:29N 29°47' W 092°13'1 1.7
2017-Nov-11 19:59N 29°47' W 092°12'1 1.5
2017-Nov-11 19:29N 29°47' W 092°11'3 5.4
2017-Nov-11 18:59N 29°47' W 092°08'3 5.5
2017-Nov-11 18:29N 29°48' W 092°05'3 5.8
2017-Nov-11 17:59N 29°49' W 092°02'3 5.8
2017-Nov-11 17:29N 29°50' W 091°59'56 5.0
2017-Nov-11 06:20N 29°34' W 090°57'2 5.9
2017-Nov-11 06:00N 29°33' W 090°55'3 5.8
2017-Nov-11 05:29N 29°32' W 090°52'3 5.9
2017-Nov-11 05:00N 29°32' W 090°48'3 5.4
2017-Nov-11 04:30N 29°33' W 090°45'3 5.1
2017-Nov-11 04:00N 29°34' W 090°43'1 1.4
2017-Nov-11 03:30N 29°34' W 090°43'0 0.7
2017-Nov-11 03:00N 29°34' W 090°42'0 0.0
2017-Nov-11 02:30N 29°34' W 090°42'1 1.5
2017-Nov-11 02:00N 29°34' W 090°43'1 1.1
2017-Nov-11 01:30N 29°34' W 090°42'0 0.1
2017-Nov-11 01:00N 29°34' W 090°42'1 1.2
2017-Nov-11 00:30N 29°34' W 090°43'1 1.3
2017-Nov-11 00:00N 29°34' W 090°44'3 6.4
2017-Nov-10 23:30N 29°32' W 090°47'4 7.3
2017-Nov-10 22:59N 29°32' W 090°51'  
Track history (hours):
 
Tides and Currents Weather Stations Pressure Air Temp Water Temp Dewpoint Dewpoint Depression Visibility Wind Speed Wind Dir Waves Ship Positions

Mr Chip

Owner: CENTRAL BOAT RENTALS, BERWICK, LA. More information available from US FCC via Universal Licensing System and Coast Guard Vessel Documentation Center.

Last reported at 2017-Nov-16 13:34 UTC. Time now 2017-Nov-20 12:02 UTC.
Position N 29°45' W 093°53'.

Length 14 m; draft 2.3 m.

Type: Tug. MMSI: 367001990.

Date/timePositionNaut miles runAvg speedWind from/ knotsBaromVisibWave heightAir tempDewpointWater temp
2017-Nov-16 13:34N 29°45' W 093°53'0 0.0
2017-Nov-16 13:30N 29°45' W 093°53'0 0.0
2017-Nov-16 09:58N 29°45' W 093°53'  
2017-Nov-12 13:13N 30°03' W 093°43'2 6.0
2017-Nov-12 12:49N 30°04' W 093°40'2 5.6
2017-Nov-12 12:23N 30°04' W 093°37'69 4.7
2017-Nov-11 21:39N 29°50' W 092°19'1 5.5
2017-Nov-11 21:29N 29°50' W 092°18'2 4.9
2017-Nov-11 20:59N 29°49' W 092°16'3 5.7
2017-Nov-11 20:29N 29°47' W 092°13'1 1.7
2017-Nov-11 19:59N 29°47' W 092°12'1 1.5
2017-Nov-11 19:29N 29°47' W 092°11'3 5.4
2017-Nov-11 18:59N 29°47' W 092°08'3 5.5
2017-Nov-11 18:29N 29°48' W 092°05'3 5.8
2017-Nov-11 17:59N 29°49' W 092°02'3 5.8
2017-Nov-11 17:29N 29°50' W 091°59'56 5.0
2017-Nov-11 06:20N 29°34' W 090°57'2 5.9
2017-Nov-11 06:00N 29°33' W 090°55'3 5.8
2017-Nov-11 05:29N 29°32' W 090°52'3 5.9
2017-Nov-11 05:00N 29°32' W 090°48'3 5.4
2017-Nov-11 04:30N 29°33' W 090°45'3 5.1
2017-Nov-11 04:00N 29°34' W 090°43'1 1.4
2017-Nov-11 03:30N 29°34' W 090°43'0 0.7
2017-Nov-11 03:00N 29°34' W 090°42'0 0.0
2017-Nov-11 02:30N 29°34' W 090°42'1 1.5
2017-Nov-11 02:00N 29°34' W 090°43'1 1.1
2017-Nov-11 01:30N 29°34' W 090°42'0 0.1
2017-Nov-11 01:00N 29°34' W 090°42'1 1.2
2017-Nov-11 00:30N 29°34' W 090°43'1 1.3
2017-Nov-11 00:00N 29°34' W 090°44'3 6.4
2017-Nov-10 23:30N 29°32' W 090°47'4 7.3
2017-Nov-10 22:59N 29°32' W 090°51'  

Dump ship's entire track history